sensor_id;sensor_type;location;lat;lon;timestamp;P1;durP1;ratioP1;P2;durP2;ratioP2
37971;SDS011;23794;48.234;8.344;2022-09-02T00:00:58;6.15;;;5.07;;
37971;SDS011;23794;48.234;8.344;2022-09-02T00:03:28;5.32;;;4.80;;
37971;SDS011;23794;48.234;8.344;2022-09-02T00:05:57;4.95;;;4.50;;
37971;SDS011;23794;48.234;8.344;2022-09-02T00:08:24;7.35;;;5.15;;
37971;SDS011;23794;48.234;8.344;2022-09-02T00:10:50;5.40;;;4.90;;
37971;SDS011;23794;48.234;8.344;2022-09-02T00:13:18;5.75;;;5.18;;
37971;SDS011;23794;48.234;8.344;2022-09-02T00:15:46;5.35;;;4.80;;
37971;SDS011;23794;48.234;8.344;2022-09-02T00:18:14;4.70;;;4.20;;
37971;SDS011;23794;48.234;8.344;2022-09-02T00:20:45;8.90;;;5.75;;
37971;SDS011;23794;48.234;8.344;2022-09-02T00:23:13;6.80;;;6.18;;
37971;SDS011;23794;48.234;8.344;2022-09-02T00:25:42;5.10;;;4.32;;
37971;SDS011;23794;48.234;8.344;2022-09-02T00:28:10;5.40;;;4.82;;
37971;SDS011;23794;48.234;8.344;2022-09-02T00:30:39;5.80;;;4.93;;
37971;SDS011;23794;48.234;8.344;2022-09-02T00:33:06;5.90;;;5.35;;
37971;SDS011;23794;48.234;8.344;2022-09-02T00:35:34;5.25;;;4.75;;
37971;SDS011;23794;48.234;8.344;2022-09-02T00:38:02;6.82;;;6.13;;
37971;SDS011;23794;48.234;8.344;2022-09-02T00:40:30;5.57;;;5.07;;
37971;SDS011;23794;48.234;8.344;2022-09-02T00:42:59;5.57;;;5.07;;
37971;SDS011;23794;48.234;8.344;2022-09-02T00:45:26;5.30;;;4.80;;
37971;SDS011;23794;48.234;8.344;2022-09-02T00:47:52;6.10;;;5.53;;
37971;SDS011;23794;48.234;8.344;2022-09-02T00:50:21;5.75;;;5.00;;
37971;SDS011;23794;48.234;8.344;2022-09-02T00:52:52;5.25;;;4.75;;
37971;SDS011;23794;48.234;8.344;2022-09-02T00:55:29;7.03;;;4.78;;
37971;SDS011;23794;48.234;8.344;2022-09-02T00:58:00;5.18;;;4.63;;
37971;SDS011;23794;48.234;8.344;2022-09-02T01:00:36;5.97;;;5.20;;
37971;SDS011;23794;48.234;8.344;2022-09-02T01:03:08;5.55;;;5.05;;
37971;SDS011;23794;48.234;8.344;2022-09-02T01:05:38;10.70;;;5.63;;
37971;SDS011;23794;48.234;8.344;2022-09-02T01:08:45;5.30;;;4.68;;
37971;SDS011;23794;48.234;8.344;2022-09-02T01:11:04;7.28;;;5.13;;
37971;SDS011;23794;48.234;8.344;2022-09-02T01:13:34;6.78;;;5.32;;
37971;SDS011;23794;48.234;8.344;2022-09-02T01:16:07;6.28;;;4.93;;
37971;SDS011;23794;48.234;8.344;2022-09-02T01:18:42;6.35;;;4.30;;
37971;SDS011;23794;48.234;8.344;2022-09-02T01:21:13;8.27;;;5.15;;
37971;SDS011;23794;48.234;8.344;2022-09-02T01:23:39;5.60;;;5.10;;
37971;SDS011;23794;48.234;8.344;2022-09-02T01:26:07;6.78;;;4.88;;
37971;SDS011;23794;48.234;8.344;2022-09-02T01:28:34;5.10;;;4.60;;
37971;SDS011;23794;48.234;8.344;2022-09-02T01:31:02;5.13;;;4.63;;
37971;SDS011;23794;48.234;8.344;2022-09-02T01:33:29;7.25;;;5.78;;
37971;SDS011;23794;48.234;8.344;2022-09-02T01:35:57;6.40;;;5.20;;
37971;SDS011;23794;48.234;8.344;2022-09-02T01:38:25;7.70;;;5.68;;
37971;SDS011;23794;48.234;8.344;2022-09-02T01:40:52;5.05;;;4.60;;
37971;SDS011;23794;48.234;8.344;2022-09-02T01:43:21;8.07;;;5.43;;
37971;SDS011;23794;48.234;8.344;2022-09-02T01:45:51;5.93;;;5.28;;
37971;SDS011;23794;48.234;8.344;2022-09-02T01:50:52;5.20;;;4.70;;
37971;SDS011;23794;48.234;8.344;2022-09-02T01:55:50;5.20;;;4.72;;
37971;SDS011;23794;48.234;8.344;2022-09-02T01:58:18;5.50;;;4.80;;
37971;SDS011;23794;48.234;8.344;2022-09-02T02:00:45;5.07;;;4.57;;
37971;SDS011;23794;48.234;8.344;2022-09-02T02:03:13;7.57;;;5.78;;
37971;SDS011;23794;48.234;8.344;2022-09-02T02:05:40;5.18;;;4.68;;
37971;SDS011;23794;48.234;8.344;2022-09-02T02:08:07;5.03;;;4.63;;
37971;SDS011;23794;48.234;8.344;2022-09-02T02:10:34;5.80;;;5.20;;
37971;SDS011;23794;48.234;8.344;2022-09-02T02:13:03;6.65;;;5.20;;
37971;SDS011;23794;48.234;8.344;2022-09-02T02:15:32;5.47;;;4.97;;
37971;SDS011;23794;48.234;8.344;2022-09-02T02:18:02;5.97;;;5.03;;
37971;SDS011;23794;48.234;8.344;2022-09-02T02:20:30;5.45;;;4.40;;
37971;SDS011;23794;48.234;8.344;2022-09-02T02:22:57;5.50;;;4.97;;
37971;SDS011;23794;48.234;8.344;2022-09-02T02:25:24;6.80;;;6.10;;
37971;SDS011;23794;48.234;8.344;2022-09-02T02:27:52;6.85;;;4.88;;
37971;SDS011;23794;48.234;8.344;2022-09-02T02:30:21;6.38;;;5.20;;
37971;SDS011;23794;48.234;8.344;2022-09-02T02:32:49;5.40;;;4.90;;
37971;SDS011;23794;48.234;8.344;2022-09-02T02:35:18;5.65;;;4.80;;
37971;SDS011;23794;48.234;8.344;2022-09-02T02:37:45;5.60;;;5.03;;
37971;SDS011;23794;48.234;8.344;2022-09-02T02:40:16;6.15;;;5.55;;
37971;SDS011;23794;48.234;8.344;2022-09-02T02:42:47;6.85;;;5.68;;
37971;SDS011;23794;48.234;8.344;2022-09-02T02:45:14;6.15;;;4.68;;
37971;SDS011;23794;48.234;8.344;2022-09-02T02:47:42;6.53;;;5.70;;
37971;SDS011;23794;48.234;8.344;2022-09-02T02:50:13;7.75;;;5.03;;
37971;SDS011;23794;48.234;8.344;2022-09-02T02:52:42;5.47;;;4.97;;
37971;SDS011;23794;48.234;8.344;2022-09-02T02:55:09;7.10;;;4.47;;
37971;SDS011;23794;48.234;8.344;2022-09-02T02:57:38;5.30;;;4.80;;
37971;SDS011;23794;48.234;8.344;2022-09-02T03:00:11;5.43;;;4.93;;
37971;SDS011;23794;48.234;8.344;2022-09-02T03:02:40;5.90;;;5.38;;
37971;SDS011;23794;48.234;8.344;2022-09-02T03:05:08;6.03;;;5.50;;
37971;SDS011;23794;48.234;8.344;2022-09-02T03:07:36;5.50;;;5.00;;
37971;SDS011;23794;48.234;8.344;2022-09-02T03:10:04;6.55;;;5.22;;
37971;SDS011;23794;48.234;8.344;2022-09-02T03:12:35;6.53;;;5.93;;
37971;SDS011;23794;48.234;8.344;2022-09-02T03:15:05;6.60;;;5.50;;
37971;SDS011;23794;48.234;8.344;2022-09-02T03:17:33;7.25;;;5.32;;
37971;SDS011;23794;48.234;8.344;2022-09-02T03:20:00;6.85;;;6.07;;
37971;SDS011;23794;48.234;8.344;2022-09-02T03:22:32;5.47;;;4.97;;
37971;SDS011;23794;48.234;8.344;2022-09-02T03:25:02;6.03;;;4.75;;
37971;SDS011;23794;48.234;8.344;2022-09-02T03:27:33;5.68;;;5.10;;
37971;SDS011;23794;48.234;8.344;2022-09-02T03:30:02;5.38;;;4.88;;
37971;SDS011;23794;48.234;8.344;2022-09-02T03:32:31;5.43;;;4.70;;
37971;SDS011;23794;48.234;8.344;2022-09-02T03:34:59;4.63;;;4.22;;
37971;SDS011;23794;48.234;8.344;2022-09-02T03:37:27;7.07;;;4.95;;
37971;SDS011;23794;48.234;8.344;2022-09-02T03:39:55;6.93;;;5.00;;
37971;SDS011;23794;48.234;8.344;2022-09-02T03:42:21;5.68;;;5.15;;
37971;SDS011;23794;48.234;8.344;2022-09-02T03:44:49;7.80;;;5.07;;
37971;SDS011;23794;48.234;8.344;2022-09-02T03:47:17;6.75;;;5.90;;
37971;SDS011;23794;48.234;8.344;2022-09-02T03:49:49;6.22;;;4.70;;
37971;SDS011;23794;48.234;8.344;2022-09-02T03:52:16;6.28;;;4.82;;
37971;SDS011;23794;48.234;8.344;2022-09-02T03:54:43;5.82;;;5.00;;
37971;SDS011;23794;48.234;8.344;2022-09-02T03:57:11;5.38;;;4.72;;
37971;SDS011;23794;48.234;8.344;2022-09-02T03:59:38;4.82;;;4.40;;
37971;SDS011;23794;48.234;8.344;2022-09-02T04:02:05;5.03;;;4.53;;
37971;SDS011;23794;48.234;8.344;2022-09-02T04:04:32;6.50;;;4.57;;
37971;SDS011;23794;48.234;8.344;2022-09-02T04:07:00;7.57;;;5.07;;
37971;SDS011;23794;48.234;8.344;2022-09-02T04:09:27;5.85;;;4.93;;
37971;SDS011;23794;48.234;8.344;2022-09-02T04:11:53;5.60;;;5.05;;
37971;SDS011;23794;48.234;8.344;2022-09-02T04:14:20;5.00;;;4.55;;
37971;SDS011;23794;48.234;8.344;2022-09-02T04:16:48;7.15;;;5.60;;
37971;SDS011;23794;48.234;8.344;2022-09-02T04:19:15;7.55;;;5.43;;
37971;SDS011;23794;48.234;8.344;2022-09-02T04:21:42;5.03;;;4.53;;
37971;SDS011;23794;48.234;8.344;2022-09-02T04:24:10;5.07;;;4.30;;
37971;SDS011;23794;48.234;8.344;2022-09-02T04:26:42;5.40;;;4.43;;
37971;SDS011;23794;48.234;8.344;2022-09-02T04:29:11;6.10;;;4.18;;
37971;SDS011;23794;48.234;8.344;2022-09-02T04:31:40;5.95;;;4.47;;
37971;SDS011;23794;48.234;8.344;2022-09-02T04:34:09;7.40;;;5.18;;
37971;SDS011;23794;48.234;8.344;2022-09-02T04:36:36;6.85;;;4.07;;
37971;SDS011;23794;48.234;8.344;2022-09-02T04:39:06;8.52;;;4.28;;
37971;SDS011;23794;48.234;8.344;2022-09-02T04:41:35;6.78;;;4.15;;
37971;SDS011;23794;48.234;8.344;2022-09-02T04:44:06;4.50;;;4.05;;
37971;SDS011;23794;48.234;8.344;2022-09-02T04:46:37;5.00;;;4.50;;
37971;SDS011;23794;48.234;8.344;2022-09-02T04:49:08;4.33;;;3.90;;
37971;SDS011;23794;48.234;8.344;2022-09-02T04:51:37;5.05;;;4.25;;
37971;SDS011;23794;48.234;8.344;2022-09-02T04:54:06;5.35;;;4.13;;
37971;SDS011;23794;48.234;8.344;2022-09-02T04:56:35;4.63;;;4.07;;
37971;SDS011;23794;48.234;8.344;2022-09-02T04:59:05;5.72;;;3.95;;
37971;SDS011;23794;48.234;8.344;2022-09-02T05:01:34;4.43;;;3.90;;
37971;SDS011;23794;48.234;8.344;2022-09-02T05:04:12;6.93;;;4.07;;
37971;SDS011;23794;48.234;8.344;2022-09-02T05:06:44;6.03;;;4.45;;
37971;SDS011;23794;48.234;8.344;2022-09-02T05:09:16;4.18;;;3.80;;
37971;SDS011;23794;48.234;8.344;2022-09-02T05:11:48;5.47;;;4.43;;
37971;SDS011;23794;48.234;8.344;2022-09-02T05:16:49;5.03;;;4.38;;
37971;SDS011;23794;48.234;8.344;2022-09-02T05:19:22;4.85;;;4.35;;
37971;SDS011;23794;48.234;8.344;2022-09-02T05:21:50;4.95;;;4.10;;
37971;SDS011;23794;48.234;8.344;2022-09-02T05:24:33;5.32;;;4.63;;
37971;SDS011;23794;48.234;8.344;2022-09-02T05:29:33;4.45;;;4.03;;
37971;SDS011;23794;48.234;8.344;2022-09-02T05:32:01;4.70;;;4.30;;
37971;SDS011;23794;48.234;8.344;2022-09-02T05:34:30;7.28;;;4.35;;
37971;SDS011;23794;48.234;8.344;2022-09-02T05:37:00;7.60;;;4.90;;
37971;SDS011;23794;48.234;8.344;2022-09-02T05:39:30;6.18;;;4.38;;
37971;SDS011;23794;48.234;8.344;2022-09-02T05:41:58;4.65;;;4.25;;
37971;SDS011;23794;48.234;8.344;2022-09-02T05:44:25;5.18;;;3.92;;
37971;SDS011;23794;48.234;8.344;2022-09-02T05:46:55;6.07;;;4.10;;
37971;SDS011;23794;48.234;8.344;2022-09-02T05:49:22;6.28;;;4.22;;
37971;SDS011;23794;48.234;8.344;2022-09-02T05:51:56;5.00;;;3.78;;
37971;SDS011;23794;48.234;8.344;2022-09-02T05:54:30;5.25;;;4.20;;
37971;SDS011;23794;48.234;8.344;2022-09-02T05:57:03;4.65;;;3.90;;
37971;SDS011;23794;48.234;8.344;2022-09-02T05:59:37;4.50;;;4.07;;
37971;SDS011;23794;48.234;8.344;2022-09-02T06:02:10;5.05;;;3.92;;
37971;SDS011;23794;48.234;8.344;2022-09-02T06:04:39;4.07;;;3.67;;
37971;SDS011;23794;48.234;8.344;2022-09-02T06:07:07;4.10;;;3.63;;
37971;SDS011;23794;48.234;8.344;2022-09-02T06:09:39;5.78;;;3.50;;
37971;SDS011;23794;48.234;8.344;2022-09-02T06:12:06;4.47;;;3.90;;
37971;SDS011;23794;48.234;8.344;2022-09-02T06:14:34;4.95;;;4.30;;
37971;SDS011;23794;48.234;8.344;2022-09-02T06:17:04;4.90;;;3.95;;
37971;SDS011;23794;48.234;8.344;2022-09-02T06:19:41;5.38;;;4.22;;
37971;SDS011;23794;48.234;8.344;2022-09-02T06:22:09;4.82;;;4.32;;
37971;SDS011;23794;48.234;8.344;2022-09-02T06:24:37;4.57;;;4.13;;
37971;SDS011;23794;48.234;8.344;2022-09-02T06:29:38;4.75;;;4.00;;
37971;SDS011;23794;48.234;8.344;2022-09-02T06:32:07;6.97;;;4.38;;
37971;SDS011;23794;48.234;8.344;2022-09-02T06:34:35;4.40;;;4.00;;
37971;SDS011;23794;48.234;8.344;2022-09-02T06:37:02;4.13;;;3.72;;
37971;SDS011;23794;48.234;8.344;2022-09-02T06:39:30;4.10;;;3.50;;
37971;SDS011;23794;48.234;8.344;2022-09-02T06:41:58;5.65;;;4.20;;
37971;SDS011;23794;48.234;8.344;2022-09-02T06:44:27;5.75;;;3.90;;
37971;SDS011;23794;48.234;8.344;2022-09-02T06:46:58;3.80;;;3.22;;
37971;SDS011;23794;48.234;8.344;2022-09-02T06:49:26;4.30;;;3.90;;
37971;SDS011;23794;48.234;8.344;2022-09-02T06:51:56;4.68;;;3.92;;
37971;SDS011;23794;48.234;8.344;2022-09-02T06:54:28;4.95;;;3.58;;
37971;SDS011;23794;48.234;8.344;2022-09-02T06:57:05;5.85;;;3.53;;
37971;SDS011;23794;48.234;8.344;2022-09-02T06:59:34;3.65;;;3.30;;
37971;SDS011;23794;48.234;8.344;2022-09-02T07:02:01;4.10;;;3.45;;
37971;SDS011;23794;48.234;8.344;2022-09-02T07:04:30;4.05;;;3.65;;
37971;SDS011;23794;48.234;8.344;2022-09-02T07:07:21;4.28;;;3.35;;
37971;SDS011;23794;48.234;8.344;2022-09-02T07:09:58;4.72;;;3.33;;
37971;SDS011;23794;48.234;8.344;2022-09-02T07:12:25;4.85;;;2.92;;
37971;SDS011;23794;48.234;8.344;2022-09-02T07:15:00;5.35;;;2.90;;
37971;SDS011;23794;48.234;8.344;2022-09-02T07:17:32;3.10;;;2.78;;
37971;SDS011;23794;48.234;8.344;2022-09-02T07:20:03;3.65;;;2.63;;
37971;SDS011;23794;48.234;8.344;2022-09-02T07:22:37;4.00;;;3.03;;
37971;SDS011;23794;48.234;8.344;2022-09-02T07:25:06;3.55;;;2.15;;
37971;SDS011;23794;48.234;8.344;2022-09-02T07:27:35;3.75;;;2.20;;
37971;SDS011;23794;48.234;8.344;2022-09-02T07:30:04;3.10;;;2.35;;
37971;SDS011;23794;48.234;8.344;2022-09-02T07:35:05;2.92;;;2.00;;
37971;SDS011;23794;48.234;8.344;2022-09-02T07:37:33;2.83;;;2.05;;
37971;SDS011;23794;48.234;8.344;2022-09-02T07:40:05;4.45;;;2.33;;
37971;SDS011;23794;48.234;8.344;2022-09-02T07:42:33;3.05;;;2.03;;
37971;SDS011;23794;48.234;8.344;2022-09-02T07:45:00;6.57;;;2.13;;
37971;SDS011;23794;48.234;8.344;2022-09-02T07:47:28;4.15;;;2.15;;
37971;SDS011;23794;48.234;8.344;2022-09-02T07:49:55;3.05;;;1.90;;
37971;SDS011;23794;48.234;8.344;2022-09-02T07:52:42;3.38;;;2.22;;
37971;SDS011;23794;48.234;8.344;2022-09-02T07:55:13;2.53;;;1.65;;
37971;SDS011;23794;48.234;8.344;2022-09-02T07:57:42;3.17;;;2.00;;
37971;SDS011;23794;48.234;8.344;2022-09-02T08:00:09;2.63;;;2.03;;
37971;SDS011;23794;48.234;8.344;2022-09-02T08:02:45;3.85;;;2.28;;
37971;SDS011;23794;48.234;8.344;2022-09-02T08:05:18;3.08;;;2.03;;
37971;SDS011;23794;48.234;8.344;2022-09-02T08:07:46;2.58;;;1.75;;
37971;SDS011;23794;48.234;8.344;2022-09-02T08:10:13;1.95;;;1.67;;
37971;SDS011;23794;48.234;8.344;2022-09-02T08:12:42;2.30;;;1.40;;
37971;SDS011;23794;48.234;8.344;2022-09-02T08:15:09;1.90;;;1.42;;
37971;SDS011;23794;48.234;8.344;2022-09-02T08:17:37;2.60;;;1.40;;
37971;SDS011;23794;48.234;8.344;2022-09-02T08:20:09;2.30;;;1.80;;
37971;SDS011;23794;48.234;8.344;2022-09-02T08:22:39;2.90;;;1.88;;
37971;SDS011;23794;48.234;8.344;2022-09-02T08:25:06;3.60;;;1.50;;
37971;SDS011;23794;48.234;8.344;2022-09-02T08:27:34;3.65;;;1.67;;
37971;SDS011;23794;48.234;8.344;2022-09-02T08:30:02;2.40;;;1.42;;
37971;SDS011;23794;48.234;8.344;2022-09-02T08:32:30;2.42;;;1.42;;
37971;SDS011;23794;48.234;8.344;2022-09-02T08:34:58;2.20;;;1.33;;
37971;SDS011;23794;48.234;8.344;2022-09-02T08:37:28;4.63;;;2.05;;
37971;SDS011;23794;48.234;8.344;2022-09-02T08:39:59;3.83;;;1.52;;
37971;SDS011;23794;48.234;8.344;2022-09-02T08:42:33;2.30;;;1.58;;
37971;SDS011;23794;48.234;8.344;2022-09-02T08:45:11;2.95;;;1.38;;
37971;SDS011;23794;48.234;8.344;2022-09-02T08:48:01;2.15;;;1.48;;
37971;SDS011;23794;48.234;8.344;2022-09-02T08:50:33;2.88;;;1.40;;
37971;SDS011;23794;48.234;8.344;2022-09-02T08:55:50;1.90;;;1.30;;
37971;SDS011;23794;48.234;8.344;2022-09-02T08:58:24;1.70;;;1.15;;
37971;SDS011;23794;48.234;8.344;2022-09-02T09:03:51;2.70;;;1.48;;
37971;SDS011;23794;48.234;8.344;2022-09-02T09:12:12;2.70;;;1.48;;
37971;SDS011;23794;48.234;8.344;2022-09-02T09:15:02;1.98;;;1.25;;
37971;SDS011;23794;48.234;8.344;2022-09-02T09:17:56;2.65;;;1.50;;
37971;SDS011;23794;48.234;8.344;2022-09-02T09:20:26;1.35;;;1.10;;
37971;SDS011;23794;48.234;8.344;2022-09-02T09:22:55;3.67;;;1.55;;
37971;SDS011;23794;48.234;8.344;2022-09-02T09:25:25;2.45;;;1.50;;
37971;SDS011;23794;48.234;8.344;2022-09-02T09:27:58;1.98;;;1.50;;
37971;SDS011;23794;48.234;8.344;2022-09-02T09:30:26;3.25;;;1.70;;
37971;SDS011;23794;48.234;8.344;2022-09-02T09:32:56;2.13;;;1.90;;
37971;SDS011;23794;48.234;8.344;2022-09-02T09:35:26;2.33;;;1.70;;
37971;SDS011;23794;48.234;8.344;2022-09-02T09:37:54;2.40;;;1.40;;
37971;SDS011;23794;48.234;8.344;2022-09-02T09:40:26;2.40;;;1.60;;
37971;SDS011;23794;48.234;8.344;2022-09-02T09:45:47;2.17;;;1.58;;
37971;SDS011;23794;48.234;8.344;2022-09-02T09:51:08;3.17;;;1.63;;
37971;SDS011;23794;48.234;8.344;2022-09-02T09:53:38;3.72;;;1.98;;
37971;SDS011;23794;48.234;8.344;2022-09-02T09:58:42;2.33;;;1.50;;
37971;SDS011;23794;48.234;8.344;2022-09-02T10:01:11;2.10;;;1.40;;
37971;SDS011;23794;48.234;8.344;2022-09-02T10:03:52;1.40;;;1.20;;
37971;SDS011;23794;48.234;8.344;2022-09-02T10:06:54;2.08;;;1.50;;
37971;SDS011;23794;48.234;8.344;2022-09-02T10:09:27;2.58;;;1.35;;
37971;SDS011;23794;48.234;8.344;2022-09-02T10:11:57;2.20;;;1.23;;
37971;SDS011;23794;48.234;8.344;2022-09-02T10:19:55;2.15;;;1.48;;
37971;SDS011;23794;48.234;8.344;2022-09-02T10:37:25;1.75;;;1.58;;
37971;SDS011;23794;48.234;8.344;2022-09-02T10:40:13;2.97;;;1.60;;
37971;SDS011;23794;48.234;8.344;2022-09-02T10:43:09;3.50;;;1.80;;
37971;SDS011;23794;48.234;8.344;2022-09-02T10:45:49;2.45;;;1.50;;
37971;SDS011;23794;48.234;8.344;2022-09-02T10:48:44;1.65;;;1.23;;
37971;SDS011;23794;48.234;8.344;2022-09-02T11:00:17;3.70;;;2.00;;
37971;SDS011;23794;48.234;8.344;2022-09-02T11:02:47;1.70;;;1.20;;
37971;SDS011;23794;48.234;8.344;2022-09-02T11:08:15;2.97;;;1.33;;
37971;SDS011;23794;48.234;8.344;2022-09-02T11:10:51;2.90;;;1.80;;
37971;SDS011;23794;48.234;8.344;2022-09-02T11:13:29;1.73;;;1.30;;
37971;SDS011;23794;48.234;8.344;2022-09-02T11:16:13;1.42;;;1.20;;
37971;SDS011;23794;48.234;8.344;2022-09-02T11:18:55;3.20;;;1.42;;
37971;SDS011;23794;48.234;8.344;2022-09-02T11:22:51;2.53;;;1.20;;
37971;SDS011;23794;48.234;8.344;2022-09-02T11:24:54;2.53;;;1.77;;
37971;SDS011;23794;48.234;8.344;2022-09-02T11:27:39;2.15;;;1.30;;
37971;SDS011;23794;48.234;8.344;2022-09-02T11:30:17;1.70;;;1.40;;
37971;SDS011;23794;48.234;8.344;2022-09-02T11:33:08;2.08;;;1.88;;
37971;SDS011;23794;48.234;8.344;2022-09-02T11:35:43;2.20;;;1.20;;
37971;SDS011;23794;48.234;8.344;2022-09-02T11:38:26;2.22;;;1.20;;
37971;SDS011;23794;48.234;8.344;2022-09-02T11:53:49;1.48;;;1.20;;
37971;SDS011;23794;48.234;8.344;2022-09-02T11:55:53;1.95;;;1.35;;
37971;SDS011;23794;48.234;8.344;2022-09-02T11:58:31;2.05;;;1.35;;
37971;SDS011;23794;48.234;8.344;2022-09-02T12:03:44;1.85;;;1.23;;
37971;SDS011;23794;48.234;8.344;2022-09-02T12:06:36;3.65;;;1.55;;
37971;SDS011;23794;48.234;8.344;2022-09-02T12:09:04;8.57;;;2.70;;
37971;SDS011;23794;48.234;8.344;2022-09-02T12:17:00;2.72;;;1.35;;
37971;SDS011;23794;48.234;8.344;2022-09-02T12:24:51;3.75;;;1.33;;
37971;SDS011;23794;48.234;8.344;2022-09-02T12:29:49;2.15;;;1.42;;
37971;SDS011;23794;48.234;8.344;2022-09-02T12:37:57;2.40;;;1.50;;
37971;SDS011;23794;48.234;8.344;2022-09-02T12:43:24;1.20;;;1.10;;
37971;SDS011;23794;48.234;8.344;2022-09-02T12:46:20;1.85;;;1.17;;
37971;SDS011;23794;48.234;8.344;2022-09-02T12:48:58;2.47;;;1.20;;
37971;SDS011;23794;48.234;8.344;2022-09-02T12:51:51;1.30;;;1.10;;
37971;SDS011;23794;48.234;8.344;2022-09-02T12:54:40;1.38;;;1.20;;
37971;SDS011;23794;48.234;8.344;2022-09-02T12:57:16;2.50;;;1.45;;
37971;SDS011;23794;48.234;8.344;2022-09-02T12:59:44;2.45;;;1.08;;
37971;SDS011;23794;48.234;8.344;2022-09-02T13:04:45;1.80;;;1.33;;
37971;SDS011;23794;48.234;8.344;2022-09-02T13:10:45;1.77;;;1.27;;
37971;SDS011;23794;48.234;8.344;2022-09-02T13:16:51;2.63;;;1.40;;
37971;SDS011;23794;48.234;8.344;2022-09-02T13:20:22;1.58;;;1.23;;
37971;SDS011;23794;48.234;8.344;2022-09-02T13:23:16;4.43;;;1.33;;
37971;SDS011;23794;48.234;8.344;2022-09-02T13:26:05;1.35;;;1.10;;
37971;SDS011;23794;48.234;8.344;2022-09-02T13:31:16;2.90;;;1.38;;
37971;SDS011;23794;48.234;8.344;2022-09-02T13:34:01;1.40;;;1.20;;
37971;SDS011;23794;48.234;8.344;2022-09-02T13:36:36;1.88;;;1.50;;
37971;SDS011;23794;48.234;8.344;2022-09-02T13:41:44;1.65;;;1.35;;
37971;SDS011;23794;48.234;8.344;2022-09-02T13:44:12;1.95;;;1.40;;
37971;SDS011;23794;48.234;8.344;2022-09-02T13:46:48;1.38;;;1.27;;
37971;SDS011;23794;48.234;8.344;2022-09-02T13:49:34;1.42;;;1.20;;
37971;SDS011;23794;48.234;8.344;2022-09-02T13:52:04;1.77;;;1.10;;
37971;SDS011;23794;48.234;8.344;2022-09-02T13:54:54;4.07;;;2.05;;
37971;SDS011;23794;48.234;8.344;2022-09-02T13:57:25;2.50;;;1.75;;
37971;SDS011;23794;48.234;8.344;2022-09-02T13:59:55;1.77;;;1.20;;
37971;SDS011;23794;48.234;8.344;2022-09-02T14:05:02;1.20;;;1.10;;
37971;SDS011;23794;48.234;8.344;2022-09-02T14:07:40;1.70;;;1.45;;
37971;SDS011;23794;48.234;8.344;2022-09-02T14:10:14;1.80;;;1.27;;
37971;SDS011;23794;48.234;8.344;2022-09-02T14:12:44;4.15;;;1.73;;
37971;SDS011;23794;48.234;8.344;2022-09-02T14:15:13;2.05;;;1.20;;
37971;SDS011;23794;48.234;8.344;2022-09-02T14:17:42;3.28;;;1.40;;
37971;SDS011;23794;48.234;8.344;2022-09-02T14:22:39;1.50;;;1.27;;
37971;SDS011;23794;48.234;8.344;2022-09-02T14:25:11;2.10;;;1.27;;
37971;SDS011;23794;48.234;8.344;2022-09-02T14:27:46;1.27;;;1.17;;
37971;SDS011;23794;48.234;8.344;2022-09-02T14:38:28;2.10;;;1.55;;
37971;SDS011;23794;48.234;8.344;2022-09-02T14:40:59;2.67;;;1.23;;
37971;SDS011;23794;48.234;8.344;2022-09-02T14:43:29;2.83;;;1.30;;
37971;SDS011;23794;48.234;8.344;2022-09-02T14:46:06;1.52;;;1.40;;
37971;SDS011;23794;48.234;8.344;2022-09-02T14:48:42;1.27;;;0.95;;
37971;SDS011;23794;48.234;8.344;2022-09-02T14:51:09;1.25;;;1.15;;
37971;SDS011;23794;48.234;8.344;2022-09-02T14:53:36;3.10;;;1.40;;
37971;SDS011;23794;48.234;8.344;2022-09-02T14:56:08;1.60;;;1.00;;
37971;SDS011;23794;48.234;8.344;2022-09-02T14:58:35;1.50;;;1.30;;
37971;SDS011;23794;48.234;8.344;2022-09-02T15:01:02;2.22;;;1.40;;
37971;SDS011;23794;48.234;8.344;2022-09-02T15:03:30;2.53;;;1.40;;
37971;SDS011;23794;48.234;8.344;2022-09-02T15:06:01;1.70;;;1.40;;
37971;SDS011;23794;48.234;8.344;2022-09-02T15:08:28;2.72;;;1.27;;
37971;SDS011;23794;48.234;8.344;2022-09-02T15:10:57;5.53;;;1.40;;
37971;SDS011;23794;48.234;8.344;2022-09-02T15:13:28;2.38;;;1.08;;
37971;SDS011;23794;48.234;8.344;2022-09-02T15:15:59;2.60;;;1.40;;
37971;SDS011;23794;48.234;8.344;2022-09-02T15:18:27;3.22;;;1.20;;
37971;SDS011;23794;48.234;8.344;2022-09-02T15:20:54;2.70;;;1.30;;
37971;SDS011;23794;48.234;8.344;2022-09-02T15:23:20;2.80;;;1.30;;
37971;SDS011;23794;48.234;8.344;2022-09-02T15:25:48;2.58;;;1.40;;
37971;SDS011;23794;48.234;8.344;2022-09-02T15:28:14;1.60;;;1.30;;
37971;SDS011;23794;48.234;8.344;2022-09-02T15:30:41;1.88;;;1.20;;
37971;SDS011;23794;48.234;8.344;2022-09-02T15:33:08;2.03;;;1.25;;
37971;SDS011;23794;48.234;8.344;2022-09-02T15:35:50;1.80;;;1.20;;
37971;SDS011;23794;48.234;8.344;2022-09-02T15:38:17;1.52;;;1.20;;
37971;SDS011;23794;48.234;8.344;2022-09-02T15:40:43;2.05;;;1.65;;
37971;SDS011;23794;48.234;8.344;2022-09-02T15:43:11;1.10;;;1.00;;
37971;SDS011;23794;48.234;8.344;2022-09-02T15:45:47;1.60;;;1.48;;
37971;SDS011;23794;48.234;8.344;2022-09-02T15:48:14;2.63;;;1.52;;
37971;SDS011;23794;48.234;8.344;2022-09-02T15:50:41;1.70;;;1.30;;
37971;SDS011;23794;48.234;8.344;2022-09-02T15:53:12;1.48;;;1.10;;
37971;SDS011;23794;48.234;8.344;2022-09-02T15:55:40;1.50;;;1.02;;
37971;SDS011;23794;48.234;8.344;2022-09-02T15:58:07;1.38;;;1.10;;
37971;SDS011;23794;48.234;8.344;2022-09-02T16:00:34;1.40;;;1.17;;
37971;SDS011;23794;48.234;8.344;2022-09-02T16:03:02;1.60;;;1.08;;
37971;SDS011;23794;48.234;8.344;2022-09-02T16:05:29;1.85;;;1.13;;
37971;SDS011;23794;48.234;8.344;2022-09-02T16:07:57;1.88;;;1.20;;
37971;SDS011;23794;48.234;8.344;2022-09-02T16:10:24;2.47;;;1.38;;
37971;SDS011;23794;48.234;8.344;2022-09-02T16:12:51;1.50;;;1.23;;
37971;SDS011;23794;48.234;8.344;2022-09-02T16:15:18;1.40;;;1.10;;
37971;SDS011;23794;48.234;8.344;2022-09-02T16:17:46;2.60;;;1.35;;
37971;SDS011;23794;48.234;8.344;2022-09-02T16:20:13;2.17;;;1.00;;
37971;SDS011;23794;48.234;8.344;2022-09-02T16:22:46;2.97;;;1.40;;
37971;SDS011;23794;48.234;8.344;2022-09-02T16:25:13;1.80;;;1.40;;
37971;SDS011;23794;48.234;8.344;2022-09-02T16:27:40;1.92;;;1.30;;
37971;SDS011;23794;48.234;8.344;2022-09-02T16:30:21;1.45;;;1.23;;
37971;SDS011;23794;48.234;8.344;2022-09-02T16:32:49;3.00;;;1.10;;
37971;SDS011;23794;48.234;8.344;2022-09-02T16:35:17;1.70;;;1.30;;
37971;SDS011;23794;48.234;8.344;2022-09-02T16:37:43;1.50;;;0.93;;
37971;SDS011;23794;48.234;8.344;2022-09-02T16:40:10;1.65;;;1.17;;
37971;SDS011;23794;48.234;8.344;2022-09-02T16:42:38;2.08;;;1.15;;
37971;SDS011;23794;48.234;8.344;2022-09-02T16:45:05;2.00;;;1.23;;
37971;SDS011;23794;48.234;8.344;2022-09-02T16:47:32;1.58;;;1.10;;
37971;SDS011;23794;48.234;8.344;2022-09-02T16:49:59;3.72;;;1.45;;
37971;SDS011;23794;48.234;8.344;2022-09-02T16:52:26;3.10;;;1.20;;
37971;SDS011;23794;48.234;8.344;2022-09-02T16:54:52;2.17;;;1.50;;
37971;SDS011;23794;48.234;8.344;2022-09-02T16:57:19;1.95;;;1.52;;
37971;SDS011;23794;48.234;8.344;2022-09-02T16:59:46;2.42;;;1.50;;
37971;SDS011;23794;48.234;8.344;2022-09-02T17:02:13;2.92;;;1.30;;
37971;SDS011;23794;48.234;8.344;2022-09-02T17:04:40;2.38;;;1.52;;
37971;SDS011;23794;48.234;8.344;2022-09-02T17:07:06;3.65;;;1.65;;
37971;SDS011;23794;48.234;8.344;2022-09-02T17:09:34;2.17;;;1.52;;
37971;SDS011;23794;48.234;8.344;2022-09-02T17:12:01;2.50;;;1.33;;
37971;SDS011;23794;48.234;8.344;2022-09-02T17:14:28;2.17;;;1.70;;
37971;SDS011;23794;48.234;8.344;2022-09-02T17:16:55;1.45;;;1.13;;
37971;SDS011;23794;48.234;8.344;2022-09-02T17:19:22;3.58;;;1.35;;
37971;SDS011;23794;48.234;8.344;2022-09-02T17:21:56;5.70;;;3.88;;
37971;SDS011;23794;48.234;8.344;2022-09-02T17:24:24;5.45;;;3.30;;